Time;durP1;ratioP1;P1;durP2;ratioP2;P2;SDS_P1;SDS_P2;PMS_P1;PMS_P2;Temp;Humidity;BMP_temperature;BMP_pressure;BME280_temperature;BME280_humidity;BME280_pressure;Samples;Min_cycle;Max_cycle;Signal;HPM_P1;HPM_P2
2021/04/22 00:02:14;;;;;;;10.83;3.63;;;5.70;99.90;;;;;;5070836;28;20206;-70
2021/04/22 00:04:40;;;;;;;8.83;3.47;;;5.70;99.90;;;;;;5073695;28;20209;-70
2021/04/22 00:07:06;;;;;;;16.63;4.20;;;5.70;99.90;;;;;;5073765;28;20156;-70
2021/04/22 00:09:31;;;;;;;10.13;4.20;;;5.60;99.90;;;;;;5073412;28;20635;-70
2021/04/22 00:11:57;;;;;;;10.80;3.60;;;5.70;99.90;;;;;;5073413;28;20390;-70
2021/04/22 00:14:23;;;;;;;21.80;5.27;;;5.60;99.90;;;;;;5073397;28;20163;-69
2021/04/22 00:16:48;;;;;;;9.33;3.60;;;5.70;99.90;;;;;;5072650;28;20545;-70
2021/04/22 00:19:14;;;;;;;11.67;3.83;;;5.60;99.90;;;;;;5073455;28;20160;-70
2021/04/22 00:21:40;;;;;;;14.40;4.70;;;5.60;99.90;;;;;;5073523;28;20619;-70
2021/04/22 00:24:06;;;;;;;13.50;3.70;;;5.60;99.90;;;;;;5073316;28;20156;-70
2021/04/22 00:26:31;;;;;;;11.80;3.90;;;5.60;99.90;;;;;;5073303;28;20531;-70
2021/04/22 00:28:57;;;;;;;15.93;4.03;;;5.50;99.90;;;;;;5073210;28;20386;-70
2021/04/22 00:31:23;;;;;;;12.30;3.70;;;5.50;99.90;;;;;;5073349;28;20179;-70
2021/04/22 00:33:49;;;;;;;10.17;5.17;;;5.40;99.90;;;;;;5072397;28;20179;-69
2021/04/22 00:36:15;;;;;;;16.07;5.13;;;5.40;99.90;;;;;;5073474;28;20159;-70
2021/04/22 00:38:42;;;;;;;11.10;3.83;;;5.40;99.90;;;;;;5073075;28;20417;-70
2021/04/22 00:41:08;;;;;;;12.80;3.60;;;5.30;99.90;;;;;;5072904;28;20469;-70
2021/04/22 00:43:34;;;;;;;13.50;4.33;;;5.30;99.90;;;;;;5073181;28;20927;-70
2021/04/22 00:46:00;;;;;;;16.17;4.70;;;5.30;99.90;;;;;;5072970;28;20402;-70
2021/04/22 00:48:27;;;;;;;10.70;4.33;;;5.40;99.90;;;;;;5072918;28;20400;-70
2021/04/22 00:50:53;;;;;;;14.40;4.80;;;5.40;99.90;;;;;;5072685;28;20429;-70
2021/04/22 00:53:20;;;;;;;13.40;4.30;;;5.30;99.90;;;;;;5072950;28;20401;-69
2021/04/22 00:55:47;;;;;;;17.60;4.30;;;5.30;99.90;;;;;;5072775;28;20798;-70
2021/04/22 00:58:13;;;;;;;12.53;4.57;;;5.20;99.90;;;;;;5072716;28;20433;-69
2021/04/22 01:00:43;;;;;;;11.50;4.43;;;5.20;99.90;;;;;;5072475;28;20483;-70
2021/04/22 01:03:09;;;;;;;14.63;4.23;;;5.20;99.90;;;;;;5072935;28;20478;-70
2021/04/22 01:08:10;;;;;;;20.50;7.13;;;5.20;99.90;;;;;;5062233;28;20509;-70
2021/04/22 01:10:36;;;;;;;12.20;4.37;;;5.20;99.90;;;;;;5050290;28;20445;-68
2021/04/22 01:13:02;;;;;;;17.40;5.50;;;5.20;99.90;;;;;;5050206;28;20383;-68
2021/04/22 01:15:28;;;;;;;13.87;4.90;;;5.20;99.90;;;;;;5050121;28;20160;-68
2021/04/22 01:17:55;;;;;;;17.23;4.53;;;5.10;99.90;;;;;;5050057;28;20399;-68
2021/04/22 01:20:28;;;;;;;12.10;5.03;;;5.10;99.90;;;;;;5050258;28;20391;-68
2021/04/22 01:22:55;;;;;;;13.30;5.80;;;5.00;99.90;;;;;;5049956;28;20391;-68
2021/04/22 01:25:26;;;;;;;15.80;4.97;;;5.00;99.90;;;;;;5049628;28;20407;-68
2021/04/22 01:27:53;;;;;;;14.23;4.17;;;5.00;99.90;;;;;;5049651;28;20497;-68
2021/04/22 01:30:23;;;;;;;14.80;4.87;;;5.00;99.90;;;;;;5049898;28;20387;-68
2021/04/22 01:32:49;;;;;;;10.77;3.80;;;5.00;99.90;;;;;;5049825;28;20482;-68
2021/04/22 01:35:19;;;;;;;15.83;5.27;;;5.00;99.90;;;;;;5050283;28;20903;-68
2021/04/22 01:37:46;;;;;;;22.23;4.97;;;5.00;99.90;;;;;;5049656;28;20853;-68
2021/04/22 01:40:14;;;;;;;14.60;4.80;;;5.00;99.90;;;;;;5049725;28;20416;-68
2021/04/22 01:42:40;;;;;;;15.13;5.90;;;5.00;99.90;;;;;;5049552;28;20418;-68
2021/04/22 01:45:07;;;;;;;9.47;4.13;;;4.90;99.90;;;;;;5049583;28;20417;-68
2021/04/22 01:47:33;;;;;;;9.60;5.07;;;5.00;99.90;;;;;;5049468;28;20526;-68
2021/04/22 01:49:59;;;;;;;20.17;5.40;;;4.90;99.90;;;;;;5049890;28;20441;-68
2021/04/22 01:52:25;;;;;;;11.13;3.73;;;4.90;99.90;;;;;;5049441;28;20399;-68
2021/04/22 01:54:51;;;;;;;16.70;5.13;;;4.90;99.90;;;;;;5049365;28;20211;-68
2021/04/22 01:57:17;;;;;;;11.40;4.40;;;4.90;99.90;;;;;;5049359;28;20395;-68
2021/04/22 01:59:42;;;;;;;16.33;5.33;;;4.90;99.90;;;;;;5049074;28;20262;-68
2021/04/22 02:02:08;;;;;;;12.73;5.10;;;4.90;99.90;;;;;;5049580;28;20176;-68
2021/04/22 02:04:33;;;;;;;12.70;4.40;;;4.90;99.90;;;;;;5049450;28;20161;-68
2021/04/22 02:06:59;;;;;;;10.00;4.57;;;4.90;99.90;;;;;;5049029;28;20210;-68
2021/04/22 02:09:24;;;;;;;15.33;4.40;;;4.80;99.90;;;;;;5049676;28;20652;-69
2021/04/22 02:11:50;;;;;;;16.60;4.73;;;4.80;99.90;;;;;;5049113;28;20161;-69
2021/04/22 02:14:16;;;;;;;16.03;5.20;;;4.80;99.90;;;;;;5049014;28;20164;-69
2021/04/22 02:16:41;;;;;;;24.63;6.07;;;4.80;99.90;;;;;;5049240;28;20184;-69
2021/04/22 02:19:07;;;;;;;17.23;6.23;;;4.80;99.90;;;;;;5038157;28;20169;-67
2021/04/22 02:21:33;;;;;;;12.83;5.17;;;4.70;99.90;;;;;;5036139;28;20161;-66
2021/04/22 02:23:59;;;;;;;15.57;4.20;;;4.80;99.90;;;;;;5035571;28;20531;-66
2021/04/22 02:26:25;;;;;;;12.50;5.37;;;4.70;99.90;;;;;;5035632;28;20439;-66
2021/04/22 02:28:51;;;;;;;14.53;4.30;;;4.80;99.90;;;;;;5035564;28;20172;-66
2021/04/22 02:31:16;;;;;;;10.60;4.63;;;4.80;99.90;;;;;;5035490;28;20900;-66
2021/04/22 02:33:42;;;;;;;14.07;5.17;;;4.70;99.90;;;;;;5035332;28;20230;-67
2021/04/22 02:36:08;;;;;;;11.80;4.80;;;4.80;99.90;;;;;;5036006;28;20248;-67
2021/04/22 02:38:34;;;;;;;18.87;4.50;;;4.80;99.90;;;;;;5035400;28;20161;-66
2021/04/22 02:40:59;;;;;;;14.97;4.97;;;4.70;99.90;;;;;;5035199;28;20606;-66
2021/04/22 02:43:25;;;;;;;16.57;5.50;;;4.70;99.90;;;;;;5035283;28;20508;-66
2021/04/22 02:45:53;;;;;;;14.87;6.27;;;4.70;99.90;;;;;;5035164;28;20168;-66
2021/04/22 02:48:20;;;;;;;19.17;5.37;;;4.70;99.90;;;;;;5035300;28;20196;-67
2021/04/22 02:50:48;;;;;;;22.23;5.77;;;4.70;99.90;;;;;;5035512;28;20420;-66
2021/04/22 02:53:14;;;;;;;20.40;5.20;;;4.70;99.90;;;;;;5035035;28;20471;-67
2021/04/22 02:55:42;;;;;;;12.50;5.80;;;4.70;99.90;;;;;;5034881;28;20889;-66
2021/04/22 02:58:09;;;;;;;18.17;5.00;;;4.60;99.90;;;;;;5034863;28;20854;-68
2021/04/22 03:00:35;;;;;;;14.57;5.13;;;4.60;99.90;;;;;;5034761;28;20419;-68
2021/04/22 03:03:00;;;;;;;20.97;5.60;;;4.60;99.90;;;;;;5035162;28;20999;-67
2021/04/22 03:05:26;;;;;;;13.80;5.87;;;4.60;99.90;;;;;;5035111;28;20164;-69
2021/04/22 03:07:51;;;;;;;13.10;4.83;;;4.50;99.90;;;;;;5034475;28;20212;-67
2021/04/22 03:10:19;;;;;;;15.33;6.23;;;4.50;99.90;;;;;;5034788;28;20248;-67
2021/04/22 03:12:45;;;;;;;30.67;6.13;;;4.50;99.90;;;;;;5034717;28;20157;-68
2021/04/22 03:15:12;;;;;;;16.73;5.70;;;4.50;99.90;;;;;;5034551;28;20391;-67
2021/04/22 03:17:37;;;;;;;11.33;5.13;;;4.50;99.90;;;;;;5034950;28;20164;-68
2021/04/22 03:20:05;;;;;;;12.10;5.30;;;4.50;99.90;;;;;;5035042;28;20921;-67
2021/04/22 03:22:32;;;;;;;13.30;5.07;;;4.40;99.90;;;;;;5034573;28;20211;-66
2021/04/22 03:24:58;;;;;;;20.00;5.20;;;4.40;99.90;;;;;;5034383;28;20431;-66
2021/04/22 03:27:23;;;;;;;17.67;5.67;;;4.40;99.90;;;;;;5034383;28;20489;-66
2021/04/22 03:29:49;;;;;;;14.97;5.40;;;4.30;99.90;;;;;;5033453;28;20396;-66
2021/04/22 03:32:14;;;;;;;18.37;5.13;;;4.30;99.90;;;;;;5034506;28;20216;-67
2021/04/22 03:34:40;;;;;;;14.27;5.80;;;4.30;99.90;;;;;;5034502;28;20569;-68
2021/04/22 03:37:05;;;;;;;16.77;6.17;;;4.30;99.90;;;;;;5034380;28;20248;-67
2021/04/22 03:39:31;;;;;;;15.23;5.23;;;4.30;99.90;;;;;;5034164;28;20165;-66
2021/04/22 03:41:56;;;;;;;15.47;6.37;;;4.30;99.90;;;;;;5033952;28;20224;-66
2021/04/22 03:44:22;;;;;;;20.20;5.80;;;4.30;99.90;;;;;;5034323;28;20184;-67
2021/04/22 03:46:47;;;;;;;28.30;6.70;;;4.30;99.90;;;;;;5034301;28;20199;-69
2021/04/22 03:49:13;;;;;;;17.63;6.10;;;4.30;99.90;;;;;;5034633;28;20175;-66
2021/04/22 03:51:38;;;;;;;17.57;5.43;;;4.30;99.90;;;;;;5032250;28;20184;-67
2021/04/22 03:54:05;;;;;;;17.30;5.40;;;4.30;99.90;;;;;;5030751;28;20925;-66
2021/04/22 03:56:30;;;;;;;16.20;5.50;;;4.30;99.90;;;;;;5030418;28;20184;-66
2021/04/22 03:58:56;;;;;;;14.67;5.13;;;4.30;99.90;;;;;;5032471;28;20978;-68
2021/04/22 04:01:21;;;;;;;17.27;6.17;;;4.20;99.90;;;;;;5032831;28;20187;-67
2021/04/22 04:03:47;;;;;;;13.37;5.40;;;4.20;99.90;;;;;;5033823;28;20264;-67
2021/04/22 04:06:12;;;;;;;17.77;6.77;;;4.20;99.90;;;;;;5033209;28;20604;-66
2021/04/22 04:08:38;;;;;;;17.73;5.73;;;4.20;99.90;;;;;;5032804;28;20642;-67
2021/04/22 04:11:04;;;;;;;19.07;6.70;;;4.20;99.90;;;;;;5030565;28;20638;-68
2021/04/22 04:13:29;;;;;;;12.20;5.00;;;4.20;99.90;;;;;;5033342;28;20582;-66
2021/04/22 04:15:55;;;;;;;10.13;5.27;;;4.20;99.90;;;;;;5034001;28;20169;-67
2021/04/22 04:18:21;;;;;;;14.33;6.00;;;4.20;99.90;;;;;;5033728;28;20165;-67
2021/04/22 04:20:48;;;;;;;18.30;6.50;;;4.10;99.90;;;;;;5033459;28;20157;-67
2021/04/22 04:23:14;;;;;;;20.23;7.23;;;4.10;99.90;;;;;;5033357;28;20487;-67
2021/04/22 04:25:40;;;;;;;24.40;7.67;;;4.20;99.90;;;;;;5033287;28;20865;-67
2021/04/22 04:28:05;;;;;;;25.87;6.83;;;4.20;99.90;;;;;;5033191;28;20486;-67
2021/04/22 04:30:31;;;;;;;19.23;7.00;;;4.20;99.90;;;;;;5033997;28;20442;-67
2021/04/22 04:32:58;;;;;;;14.93;7.00;;;4.20;99.90;;;;;;5033618;28;20242;-67
2021/04/22 04:35:24;;;;;;;16.53;5.60;;;4.20;99.90;;;;;;5033237;28;20483;-67
2021/04/22 04:37:49;;;;;;;16.50;6.60;;;4.20;99.90;;;;;;5033359;28;20478;-67
2021/04/22 04:40:16;;;;;;;17.20;7.30;;;4.20;99.90;;;;;;5032995;28;21004;-67
2021/04/22 04:42:42;;;;;;;25.40;7.57;;;4.20;99.90;;;;;;5032826;28;20618;-67
2021/04/22 04:45:10;;;;;;;16.97;6.77;;;4.20;99.90;;;;;;5033753;28;20930;-67
2021/04/22 04:47:36;;;;;;;28.07;6.27;;;4.20;99.90;;;;;;5033368;28;21013;-67
2021/04/22 04:50:03;;;;;;;18.53;6.77;;;4.20;99.90;;;;;;5032807;28;20414;-67
2021/04/22 04:52:29;;;;;;;21.27;7.50;;;4.20;99.90;;;;;;5032877;28;20738;-67
2021/04/22 04:54:54;;;;;;;17.97;7.93;;;4.20;99.90;;;;;;5032730;28;20418;-67
2021/04/22 04:57:20;;;;;;;23.40;7.23;;;4.20;99.90;;;;;;5032868;28;20264;-67
2021/04/22 04:59:46;;;;;;;22.23;7.73;;;4.20;99.90;;;;;;5033805;28;20223;-67
2021/04/22 05:02:11;;;;;;;14.50;7.03;;;4.20;99.90;;;;;;5032918;28;20207;-67
2021/04/22 05:04:37;;;;;;;17.13;6.80;;;4.20;99.90;;;;;;5031952;28;20179;-67
2021/04/22 05:07:02;;;;;;;16.43;7.07;;;4.20;99.90;;;;;;5031015;28;20215;-67
2021/04/22 05:09:28;;;;;;;21.50;9.00;;;4.30;99.90;;;;;;5032867;28;20169;-67
2021/04/22 05:11:53;;;;;;;17.57;6.50;;;4.30;99.90;;;;;;5032988;28;20625;-67
2021/04/22 05:14:19;;;;;;;21.93;7.10;;;4.30;99.90;;;;;;5033738;28;20231;-67
2021/04/22 05:16:45;;;;;;;19.43;6.33;;;4.30;99.90;;;;;;5033268;28;20157;-67
2021/04/22 05:19:10;;;;;;;20.50;7.40;;;4.40;99.90;;;;;;5032834;28;20169;-67
2021/04/22 05:21:36;;;;;;;11.47;6.00;;;4.40;99.90;;;;;;5032964;28;20175;-67
2021/04/22 05:24:03;;;;;;;19.93;6.73;;;4.50;99.90;;;;;;5031600;28;20748;-67
2021/04/22 05:26:28;;;;;;;30.70;8.00;;;4.50;99.90;;;;;;5032081;28;20187;-67
2021/04/22 05:28:55;;;;;;;16.23;6.80;;;4.50;99.90;;;;;;5031966;28;20884;-68
2021/04/22 05:31:21;;;;;;;21.33;8.17;;;4.60;99.90;;;;;;5031115;28;20264;-67
2021/04/22 05:33:47;;;;;;;21.33;7.03;;;4.60;99.90;;;;;;5032357;28;20924;-67
2021/04/22 05:36:13;;;;;;;25.47;6.80;;;4.60;99.90;;;;;;5032027;28;20431;-67
2021/04/22 05:38:38;;;;;;;15.97;6.50;;;4.70;99.90;;;;;;5031452;28;20542;-67
2021/04/22 05:41:04;;;;;;;18.07;7.33;;;4.70;99.90;;;;;;5031202;28;20196;-67
2021/04/22 05:43:30;;;;;;;20.50;7.73;;;4.80;99.90;;;;;;5034769;28;20192;-67
2021/04/22 05:45:55;;;;;;;15.90;6.47;;;4.80;99.90;;;;;;5032136;28;20185;-67
2021/04/22 05:48:21;;;;;;;18.30;8.60;;;4.90;99.90;;;;;;5032356;28;20176;-67
2021/04/22 05:50:47;;;;;;;19.33;6.33;;;5.00;99.90;;;;;;5032485;28;20657;-67
2021/04/22 05:53:12;;;;;;;16.93;6.73;;;5.00;99.90;;;;;;5033555;28;20403;-67
2021/04/22 05:55:38;;;;;;;16.40;7.07;;;5.10;99.90;;;;;;5033457;28;20263;-67
2021/04/22 05:58:03;;;;;;;13.90;7.50;;;5.20;99.90;;;;;;5036871;28;20192;-68
2021/04/22 06:00:29;;;;;;;15.00;7.00;;;5.30;99.90;;;;;;5036280;28;20235;-67
2021/04/22 06:02:57;;;;;;;15.53;7.07;;;5.40;99.90;;;;;;5035046;28;20264;-67
2021/04/22 06:05:23;;;;;;;16.27;6.63;;;5.60;99.90;;;;;;5035761;28;20489;-67
2021/04/22 06:07:49;;;;;;;19.20;6.67;;;5.70;99.90;;;;;;5035677;28;20501;-67
2021/04/22 06:10:16;;;;;;;10.03;5.43;;;5.90;99.90;;;;;;5035748;28;20944;-67
2021/04/22 06:12:42;;;;;;;17.10;6.97;;;6.00;99.90;;;;;;5037724;28;20889;-67
2021/04/22 06:15:08;;;;;;;15.50;6.50;;;6.10;99.90;;;;;;5036283;28;20469;-67
2021/04/22 06:17:34;;;;;;;15.00;6.27;;;6.30;99.90;;;;;;5035948;28;21257;-67
2021/04/22 06:20:00;;;;;;;11.20;5.53;;;6.50;99.90;;;;;;5035686;28;20416;-67
2021/04/22 06:22:25;;;;;;;19.70;6.50;;;6.60;99.90;;;;;;5035530;28;20419;-67
2021/04/22 06:24:51;;;;;;;16.77;6.60;;;6.70;99.90;;;;;;5035757;28;20164;-67
2021/04/22 06:27:17;;;;;;;17.83;7.10;;;6.90;99.90;;;;;;5035989;28;20775;-67
2021/04/22 06:29:42;;;;;;;15.87;7.17;;;7.10;99.90;;;;;;5035526;28;20672;-67
2021/04/22 06:32:08;;;;;;;19.00;5.10;;;7.30;99.90;;;;;;5031231;28;20219;-67
2021/04/22 06:34:34;;;;;;;11.60;6.27;;;7.40;99.90;;;;;;5034555;28;20181;-67
2021/04/22 06:37:01;;;;;;;13.07;5.87;;;7.50;99.90;;;;;;5034472;28;20997;-67
2021/04/22 06:39:27;;;;;;;12.67;4.90;;;7.60;99.90;;;;;;5033325;28;20403;-67
2021/04/22 06:41:53;;;;;;;11.40;6.20;;;7.80;99.90;;;;;;5036189;28;20435;-67
2021/04/22 06:44:19;;;;;;;10.47;5.27;;;7.90;99.90;;;;;;5022364;28;20860;-67
2021/04/22 06:46:45;;;;;;;11.63;6.50;;;8.00;99.70;;;;;;5033270;28;20208;-67
2021/04/22 06:49:13;;;;;;;14.80;5.63;;;8.00;98.70;;;;;;5034663;28;20582;-67
2021/04/22 06:51:39;;;;;;;15.90;5.40;;;8.10;98.80;;;;;;5031290;28;20434;-67
2021/04/22 06:54:05;;;;;;;13.70;5.87;;;8.20;98.30;;;;;;5035946;28;20420;-67
2021/04/22 06:56:31;;;;;;;12.13;5.83;;;8.40;97.90;;;;;;5036717;28;20239;-67
2021/04/22 06:59:00;;;;;;;14.00;5.60;;;8.50;96.40;;;;;;5034478;28;20530;-67
2021/04/22 07:01:26;;;;;;;11.90;5.57;;;8.60;96.10;;;;;;5032850;28;20927;-67
2021/04/22 07:03:52;;;;;;;12.53;4.80;;;8.60;95.30;;;;;;5033691;28;20491;-67
2021/04/22 07:06:18;;;;;;;12.97;5.57;;;8.60;94.60;;;;;;5032718;28;20243;-67
2021/04/22 07:08:43;;;;;;;10.50;5.90;;;8.60;95.00;;;;;;5033881;28;20176;-67
2021/04/22 07:11:09;;;;;;;14.13;4.80;;;8.70;94.80;;;;;;5035656;28;20172;-67
2021/04/22 07:13:35;;;;;;;9.70;5.10;;;8.70;94.50;;;;;;5034259;28;20630;-67
2021/04/22 07:16:01;;;;;;;11.30;4.80;;;8.80;94.10;;;;;;5033201;28;20310;-67
2021/04/22 07:18:26;;;;;;;11.10;5.70;;;8.90;93.50;;;;;;5033166;28;20944;-67
2021/04/22 07:20:52;;;;;;;11.37;5.50;;;9.00;93.40;;;;;;5031560;28;20559;-67
2021/04/22 07:23:18;;;;;;;17.47;5.27;;;9.10;93.10;;;;;;5033439;28;20188;-67
2021/04/22 07:25:46;;;;;;;12.00;5.50;;;9.10;92.40;;;;;;5034713;28;20181;-67
2021/04/22 07:28:13;;;;;;;8.60;4.77;;;9.20;91.50;;;;;;5034346;28;20208;-67
2021/04/22 07:30:39;;;;;;;12.33;5.20;;;9.30;91.60;;;;;;5034305;28;20410;-67
2021/04/22 07:33:06;;;;;;;11.47;4.93;;;9.40;91.00;;;;;;5034391;28;20404;-67
2021/04/22 07:35:37;;;;;;;12.33;4.87;;;9.60;90.00;;;;;;5034294;28;20458;-67
2021/04/22 07:38:04;;;;;;;9.83;4.53;;;9.80;87.00;;;;;;5034435;28;20518;-67
2021/04/22 07:40:30;;;;;;;15.17;4.80;;;9.90;84.90;;;;;;5035391;28;20419;-67
2021/04/22 07:42:57;;;;;;;9.07;4.20;;;9.90;84.50;;;;;;5034143;28;20421;-67
2021/04/22 07:45:27;;;;;;;14.60;4.70;;;9.80;83.20;;;;;;5033629;28;20396;-67
2021/04/22 07:47:53;;;;;;;10.13;4.10;;;9.90;83.40;;;;;;5026395;28;20573;-68
2021/04/22 07:50:20;;;;;;;6.37;3.60;;;9.90;82.30;;;;;;5034188;28;20498;-67
2021/04/22 07:52:46;;;;;;;13.90;4.93;;;10.10;79.30;;;;;;5034588;28;20971;-68
2021/04/22 07:55:17;;;;;;;7.33;3.77;;;10.10;77.80;;;;;;5034685;28;20387;-67
2021/04/22 07:57:43;;;;;;;13.20;4.70;;;10.30;77.10;;;;;;5014047;28;20408;-67
2021/04/22 08:00:12;;;;;;;7.27;3.60;;;11.00;74.10;;;;;;5030528;28;20458;-67
2021/04/22 08:02:38;;;;;;;13.87;5.03;;;11.40;70.40;;;;;;5033559;28;20502;-67
2021/04/22 08:05:04;;;;;;;9.63;3.60;;;11.60;68.90;;;;;;5033733;28;20488;-67
2021/04/22 08:07:30;;;;;;;10.07;4.00;;;11.60;66.40;;;;;;5034255;28;20223;-67
2021/04/22 08:09:55;;;;;;;8.80;4.10;;;11.60;66.40;;;;;;5033378;28;20423;-67
2021/04/22 08:12:21;;;;;;;9.57;4.00;;;11.60;65.70;;;;;;5033465;28;20544;-67
2021/04/22 08:14:46;;;;;;;8.43;4.33;;;11.60;65.80;;;;;;5033637;28;20587;-67
2021/04/22 08:17:12;;;;;;;8.07;3.53;;;11.50;65.70;;;;;;5033119;28;20188;-67
2021/04/22 08:19:38;;;;;;;5.37;3.00;;;11.60;66.10;;;;;;5033514;28;20165;-67
2021/04/22 08:22:03;;;;;;;7.23;3.43;;;11.50;65.20;;;;;;5034181;28;20199;-67
2021/04/22 08:24:29;;;;;;;7.80;3.23;;;11.50;64.20;;;;;;5033833;28;20280;-67
2021/04/22 08:26:55;;;;;;;8.20;3.47;;;11.40;63.80;;;;;;5033236;28;20189;-67
2021/04/22 08:29:22;;;;;;;7.60;4.10;;;11.40;63.70;;;;;;5033246;28;20157;-67
2021/04/22 08:31:48;;;;;;;6.80;3.90;;;11.50;62.50;;;;;;5033537;28;20479;-67
2021/04/22 08:34:14;;;;;;;8.63;3.83;;;11.70;62.40;;;;;;5027663;28;20653;-67
2021/04/22 08:36:39;;;;;;;7.53;3.57;;;11.70;61.40;;;;;;5014196;28;20649;-68
2021/04/22 08:39:09;;;;;;;7.50;3.33;;;11.60;60.80;;;;;;5021043;28;20399;-67
2021/04/22 08:41:35;;;;;;;10.50;4.10;;;11.50;62.40;;;;;;5031575;28;20951;-67
2021/04/22 08:44:02;;;;;;;6.83;3.90;;;11.40;61.70;;;;;;5032076;28;20589;-67
2021/04/22 08:46:30;;;;;;;8.60;5.30;;;11.50;62.00;;;;;;5031001;28;20470;-67
2021/04/22 08:48:56;;;;;;;9.90;4.23;;;11.40;60.90;;;;;;5033121;28;20457;-67
2021/04/22 08:51:23;;;;;;;11.43;4.60;;;11.20;60.90;;;;;;5032440;28;20431;-68
2021/04/22 08:53:49;;;;;;;6.43;3.60;;;11.20;61.50;;;;;;5033569;28;20783;-67
2021/04/22 08:56:18;;;;;;;10.73;4.30;;;11.20;62.00;;;;;;5033211;28;20396;-67
2021/04/22 08:58:44;;;;;;;8.23;4.87;;;11.20;62.50;;;;;;5033160;28;20199;-67
2021/04/22 09:01:12;;;;;;;8.37;4.27;;;11.20;62.20;;;;;;5018749;28;20427;-67
2021/04/22 09:03:39;;;;;;;9.10;4.03;;;11.10;61.50;;;;;;5031938;28;20415;-67
2021/04/22 09:06:05;;;;;;;13.83;5.40;;;11.00;61.60;;;;;;5034014;28;20489;-67
2021/04/22 09:08:36;;;;;;;8.63;4.63;;;10.90;62.30;;;;;;5033079;28;20425;-67
2021/04/22 09:11:05;;;;;;;9.57;4.97;;;10.90;62.70;;;;;;5032250;28;20425;-67
2021/04/22 09:13:31;;;;;;;7.87;3.70;;;10.90;62.00;;;;;;5032710;28;20412;-67
2021/04/22 09:16:15;;;;;;;8.13;4.37;;;10.80;61.20;;;;;;5032672;28;20454;-67
2021/04/22 09:18:44;;;;;;;8.53;4.50;;;10.80;61.10;;;;;;5024985;28;20436;-67
2021/04/22 09:21:36;;;;;;;11.30;4.77;;;10.70;62.00;;;;;;5030117;28;20416;-67
2021/04/22 09:26:41;;;;;;;13.60;5.37;;;10.60;63.30;;;;;;5116618;27;20555;-68
2021/04/22 09:29:09;;;;;;;8.80;3.40;;;10.70;63.40;;;;;;5110708;28;20426;-68
2021/04/22 09:31:35;;;;;;;11.20;4.50;;;10.90;62.70;;;;;;5110603;28;20764;-68
2021/04/22 09:39:21;;;;;;;7.80;3.93;;;11.90;59.70;;;;;;5116555;27;20532;-68
2021/04/22 09:41:49;;;;;;;10.33;4.37;;;12.10;59.30;;;;;;5116862;28;20412;-68
2021/04/22 09:44:16;;;;;;;13.33;4.27;;;12.30;58.50;;;;;;5114070;28;20445;-68
2021/04/22 09:46:46;;;;;;;10.70;4.33;;;12.50;58.20;;;;;;5117713;28;20419;-68
2021/04/22 09:49:16;;;;;;;7.23;3.20;;;12.80;57.90;;;;;;5121845;28;20522;-68
2021/04/22 09:51:42;;;;;;;7.43;3.60;;;13.10;57.40;;;;;;5128361;28;20423;-68
2021/04/22 09:59:26;;;;;;;10.50;3.97;;;13.40;54.80;;;;;;5088081;27;20577;-68
2021/04/22 10:04:38;;;;;;;8.80;3.60;;;13.60;55.50;;;;;;5108682;27;20551;-68
2021/04/22 10:07:17;;;;;;;8.50;4.07;;;13.60;54.40;;;;;;5087034;28;20419;-68
2021/04/22 10:09:43;;;;;;;9.20;3.43;;;13.60;54.60;;;;;;5083496;28;20417;-68
2021/04/22 10:12:18;;;;;;;10.87;4.03;;;13.60;55.10;;;;;;5082209;28;20410;-67
2021/04/22 10:14:44;;;;;;;17.80;4.43;;;13.60;55.10;;;;;;5074207;28;20198;-67
2021/04/22 10:17:16;;;;;;;9.70;4.50;;;13.60;56.20;;;;;;5089814;28;20445;-68
2021/04/22 10:19:42;;;;;;;10.40;5.20;;;13.50;54.40;;;;;;5090827;28;20318;-67
2021/04/22 10:22:07;;;;;;;6.67;3.50;;;13.40;54.10;;;;;;5089175;28;20417;-67
2021/04/22 10:24:33;;;;;;;7.70;3.60;;;13.20;54.60;;;;;;5090123;28;20777;-67
2021/04/22 10:27:01;;;;;;;9.87;4.57;;;13.00;55.20;;;;;;5090070;28;20194;-68
2021/04/22 10:29:28;;;;;;;7.43;4.00;;;12.90;55.60;;;;;;5079468;28;20782;-68
2021/04/22 10:31:58;;;;;;;11.60;5.33;;;12.80;55.50;;;;;;5088522;28;20428;-68
2021/04/22 10:34:29;;;;;;;9.20;4.43;;;12.60;56.10;;;;;;5089072;28;20444;-68
2021/04/22 10:36:56;;;;;;;9.70;5.60;;;12.40;56.30;;;;;;5089820;28;20424;-68
2021/04/22 10:39:22;;;;;;;12.70;6.13;;;12.30;57.10;;;;;;5088933;28;20462;-68
2021/04/22 10:41:50;;;;;;;8.63;5.07;;;12.20;57.20;;;;;;5089502;28;20894;-68
2021/04/22 10:44:17;;;;;;;9.50;5.90;;;12.20;57.70;;;;;;5088801;28;20572;-67
2021/04/22 10:46:42;;;;;;;9.53;6.90;;;12.20;57.80;;;;;;5080040;28;20453;-68
2021/04/22 10:49:08;;;;;;;11.07;6.37;;;12.30;57.40;;;;;;5088500;28;20510;-68
2021/04/22 10:51:35;;;;;;;11.47;7.00;;;12.30;57.50;;;;;;5080037;28;20317;-68
2021/04/22 10:54:02;;;;;;;9.40;7.20;;;12.20;57.20;;;;;;5090815;28;20159;-68
2021/04/22 10:56:29;;;;;;;13.53;7.43;;;12.10;58.40;;;;;;5090004;28;20405;-68
2021/04/22 10:58:55;;;;;;;13.90;6.50;;;11.90;57.60;;;;;;5089660;28;20454;-68
2021/04/22 11:01:33;;;;;;;14.60;7.40;;;11.90;58.10;;;;;;5091622;28;20910;-68
2021/04/22 11:04:14;;;;;;;16.63;7.57;;;11.80;58.40;;;;;;5074688;28;20469;-67
2021/04/22 11:06:41;;;;;;;13.67;7.90;;;11.90;59.60;;;;;;5069059;28;20400;-68
2021/04/22 11:09:13;;;;;;;9.60;6.73;;;11.90;59.70;;;;;;5069359;28;20425;-68
2021/04/22 11:11:50;;;;;;;10.97;6.47;;;12.00;60.30;;;;;;5068949;28;20394;-68
2021/04/22 11:14:17;;;;;;;10.57;6.00;;;12.10;59.50;;;;;;5064942;28;20411;-68
2021/04/22 11:16:51;;;;;;;11.30;6.57;;;12.30;58.70;;;;;;5057076;28;20803;-68
2021/04/22 11:22:00;;;;;;;7.40;5.20;;;12.20;57.60;;;;;;5110878;27;20877;-68
2021/04/22 11:24:36;;;;;;;11.93;6.70;;;12.00;57.60;;;;;;5111004;28;20396;-68
2021/04/22 11:27:06;;;;;;;10.77;6.10;;;11.90;57.90;;;;;;5110857;28;20391;-68
2021/04/22 11:29:52;;;;;;;11.13;5.90;;;11.80;58.40;;;;;;5093270;28;20399;-68
2021/04/22 11:34:58;;;;;;;9.33;5.20;;;11.60;58.60;;;;;;5110990;27;20551;-68
2021/04/22 11:37:31;;;;;;;8.00;5.13;;;11.30;59.20;;;;;;5110329;28;20548;-68
2021/04/22 11:39:57;;;;;;;11.47;7.00;;;11.20;59.10;;;;;;5110794;28;20423;-68
2021/04/22 11:42:23;;;;;;;7.97;5.13;;;11.20;60.10;;;;;;5110630;28;20463;-68
2021/04/22 11:44:52;;;;;;;13.73;6.40;;;11.20;60.00;;;;;;5111644;28;20927;-68
2021/04/22 11:47:24;;;;;;;8.40;5.93;;;11.10;60.10;;;;;;5111014;28;20903;-68
2021/04/22 11:58:12;;;;;;;10.70;6.33;;;11.00;61.10;;;;;;5110973;27;20510;-68
2021/04/22 12:06:05;;;;;;;10.97;5.17;;;11.00;60.50;;;;;;5111112;27;20504;-67
2021/04/22 12:11:13;;;;;;;8.43;4.70;;;11.00;60.10;;;;;;5123295;27;20566;-68
2021/04/22 12:13:38;;;;;;;8.73;5.30;;;11.10;59.70;;;;;;5111580;28;20400;-68
2021/04/22 12:16:06;;;;;;;10.00;6.03;;;11.10;59.90;;;;;;5111190;28;20810;-68
2021/04/22 12:23:55;;;;;;;12.03;5.77;;;11.10;59.10;;;;;;5131448;27;20538;-68
2021/04/22 12:31:40;;;;;;;10.80;6.57;;;11.00;60.20;;;;;;5131372;27;20294;-68
2021/04/22 12:34:14;;;;;;;13.13;6.30;;;11.00;60.00;;;;;;5111074;28;20401;-68
2021/04/22 12:39:38;;;;;;;10.30;5.93;;;11.00;60.70;;;;;;5110911;27;20908;-68
2021/04/22 12:44:52;;;;;;;9.87;5.17;;;11.00;59.70;;;;;;5088006;28;20582;-67
2021/04/22 12:47:17;;;;;;;7.93;4.77;;;11.00;60.10;;;;;;5070106;28;20465;-67
2021/04/22 12:49:51;;;;;;;7.87;4.80;;;11.00;60.20;;;;;;5069575;28;20448;-67
2021/04/22 12:52:22;;;;;;;8.97;6.13;;;11.10;62.80;;;;;;5069486;28;20186;-67
2021/04/22 12:54:57;;;;;;;11.60;5.70;;;11.10;62.10;;;;;;5070478;28;20697;-67
2021/04/22 12:57:23;;;;;;;8.70;4.93;;;11.30;62.10;;;;;;5070865;28;20401;-67
2021/04/22 12:59:50;;;;;;;5.97;4.83;;;11.30;59.40;;;;;;5070273;28;20419;-67
2021/04/22 13:02:16;;;;;;;10.20;5.73;;;11.30;58.90;;;;;;5069971;28;20471;-67
2021/04/22 13:04:54;;;;;;;14.27;5.90;;;11.30;59.10;;;;;;5070099;28;20581;-67
2021/04/22 13:07:33;;;;;;;8.20;5.80;;;11.30;59.00;;;;;;5068075;28;20488;-67
2021/04/22 13:10:00;;;;;;;9.03;4.87;;;11.30;59.20;;;;;;5069179;28;20421;-67
2021/04/22 13:12:25;;;;;;;8.57;5.10;;;11.30;59.60;;;;;;5067116;28;20951;-67
2021/04/22 13:14:52;;;;;;;10.73;6.33;;;11.30;59.70;;;;;;5067531;28;20453;-67
2021/04/22 13:17:17;;;;;;;8.80;6.10;;;11.30;61.10;;;;;;5067834;28;20246;-67
2021/04/22 13:19:44;;;;;;;8.83;6.20;;;11.30;60.20;;;;;;5068047;28;20890;-67
2021/04/22 13:22:13;;;;;;;12.13;6.33;;;11.30;60.00;;;;;;5068191;28;20397;-67
2021/04/22 13:24:41;;;;;;;14.53;7.73;;;11.30;60.30;;;;;;5068165;28;20399;-67
2021/04/22 13:27:11;;;;;;;12.03;6.70;;;11.30;60.50;;;;;;5069129;28;20383;-67
2021/04/22 13:29:50;;;;;;;13.07;6.37;;;11.20;60.60;;;;;;5068733;28;20751;-67
2021/04/22 13:32:18;;;;;;;13.67;6.97;;;11.20;61.30;;;;;;5069384;28;20389;-67
2021/04/22 13:34:46;;;;;;;7.90;5.73;;;11.20;61.10;;;;;;5069336;28;20835;-67
2021/04/22 13:37:12;;;;;;;12.43;7.13;;;11.10;61.80;;;;;;5069012;28;20398;-67
2021/04/22 13:39:40;;;;;;;9.47;5.57;;;11.10;61.50;;;;;;5069525;28;20415;-67
2021/04/22 13:42:07;;;;;;;9.80;6.40;;;11.10;61.40;;;;;;5069779;28;20901;-67